createdAt,value
2018-12-26T00:00:47.159Z,-0.20
2018-12-26T00:03:15.583Z,-0.20
2018-12-26T00:05:44.085Z,-0.30
2018-12-26T00:08:13.635Z,-0.40
2018-12-26T00:10:42.099Z,-0.40
2018-12-26T00:13:10.508Z,-0.40
2018-12-26T00:15:38.940Z,-0.50
2018-12-26T00:18:07.369Z,-0.60
2018-12-26T00:20:35.798Z,-0.70
2018-12-26T00:23:04.272Z,-0.80
2018-12-26T00:25:32.687Z,-0.90
2018-12-26T00:28:01.134Z,-0.90
2018-12-26T00:30:29.573Z,-0.90
2018-12-26T00:32:58.012Z,-1.00
2018-12-26T00:35:26.438Z,-1.00
2018-12-26T00:37:54.902Z,-1.00
2018-12-26T00:40:23.323Z,-1.00
2018-12-26T00:42:51.749Z,-1.00
2018-12-26T00:45:20.177Z,-1.00
2018-12-26T00:47:48.603Z,-1.00
2018-12-26T00:50:17.026Z,-1.10
2018-12-26T00:52:45.440Z,-1.10
2018-12-26T00:55:13.870Z,-1.10
2018-12-26T00:57:42.286Z,-1.10
2018-12-26T01:00:10.698Z,-1.10
2018-12-26T01:02:39.126Z,-1.10
2018-12-26T01:05:07.607Z,-1.10
2018-12-26T01:07:36.043Z,-1.10
2018-12-26T01:10:05.393Z,-1.00
2018-12-26T01:12:33.804Z,-0.90
2018-12-26T01:15:02.396Z,-1.00
2018-12-26T01:17:30.829Z,-1.00
2018-12-26T01:19:59.234Z,-0.90
2018-12-26T01:22:27.662Z,-0.90
2018-12-26T01:24:56.084Z,-0.70
2018-12-26T01:27:24.508Z,-0.70
2018-12-26T01:29:52.926Z,-0.60
2018-12-26T01:32:21.390Z,-0.70
2018-12-26T01:34:49.790Z,-0.80
2018-12-26T01:37:18.200Z,-0.70
2018-12-26T01:39:46.632Z,-0.70
2018-12-26T01:42:15.055Z,-0.60
2018-12-26T01:44:43.495Z,-0.60
2018-12-26T01:47:11.916Z,-0.50
2018-12-26T01:49:40.338Z,-0.50
2018-12-26T01:52:08.773Z,-0.40
2018-12-26T01:54:37.172Z,-0.40
2018-12-26T01:57:05.604Z,-0.40
2018-12-26T01:59:34.035Z,-0.50
2018-12-26T02:02:02.539Z,-0.60
2018-12-26T02:04:30.936Z,-0.70
2018-12-26T02:06:59.358Z,-0.80
2018-12-26T02:09:27.789Z,-0.90
2018-12-26T02:11:56.216Z,-1.00
2018-12-26T02:14:24.710Z,-1.00
2018-12-26T02:16:53.108Z,-1.10
2018-12-26T02:19:21.623Z,-1.00
2018-12-26T02:21:50.052Z,-0.90
2018-12-26T02:24:18.457Z,-0.80
2018-12-26T02:26:46.881Z,-0.60
2018-12-26T02:29:15.307Z,-0.50
2018-12-26T02:31:43.759Z,-0.50
2018-12-26T02:34:12.169Z,-0.50
2018-12-26T02:36:40.593Z,-0.50
2018-12-26T02:39:09.008Z,-0.40
2018-12-26T02:41:37.469Z,-0.40
2018-12-26T02:44:05.909Z,-0.40
2018-12-26T02:46:34.355Z,-0.40
2018-12-26T02:49:02.782Z,-0.50
2018-12-26T02:51:31.214Z,-0.50
2018-12-26T02:53:59.644Z,-0.60
2018-12-26T02:56:28.184Z,-0.70
2018-12-26T02:58:56.601Z,-0.80
2018-12-26T03:01:25.080Z,-0.80
2018-12-26T03:03:53.497Z,-0.80
2018-12-26T03:06:21.931Z,-0.70
2018-12-26T03:08:50.352Z,-0.80
2018-12-26T03:11:18.789Z,-0.80
2018-12-26T03:13:47.287Z,-0.90
2018-12-26T03:16:15.776Z,-0.90
2018-12-26T03:18:44.193Z,-0.70
2018-12-26T03:21:12.623Z,-0.70
2018-12-26T03:23:41.030Z,-0.50
2018-12-26T03:26:09.460Z,-0.60
2018-12-26T03:28:37.894Z,-0.50
2018-12-26T03:31:06.310Z,-0.50
2018-12-26T03:33:34.721Z,-0.40
2018-12-26T03:36:03.177Z,-0.40
2018-12-26T03:38:31.640Z,-0.50
2018-12-26T03:41:00.126Z,-0.40
2018-12-26T03:43:28.634Z,-0.50
2018-12-26T03:45:57.072Z,-0.60
2018-12-26T03:48:26.940Z,-0.70
2018-12-26T03:50:55.516Z,-0.80
2018-12-26T03:53:23.900Z,-0.70
2018-12-26T03:55:52.302Z,-0.70
2018-12-26T03:58:20.904Z,-0.70
2018-12-26T04:00:49.305Z,-0.70
2018-12-26T04:03:17.730Z,-0.70
2018-12-26T04:05:46.210Z,-0.80
2018-12-26T04:08:14.656Z,-0.90
2018-12-26T04:10:43.149Z,-1.10
2018-12-26T04:13:11.678Z,-1.20
2018-12-26T04:15:40.088Z,-1.30
2018-12-26T04:18:08.698Z,-1.40
2018-12-26T04:20:37.172Z,-1.40
2018-12-26T04:23:05.817Z,-1.40
2018-12-26T04:25:34.598Z,-1.40
2018-12-26T04:28:03.033Z,-1.40
2018-12-26T04:30:31.469Z,-1.30
2018-12-26T04:32:59.990Z,-1.30
2018-12-26T04:35:28.388Z,-1.40
2018-12-26T04:37:56.814Z,-1.40
2018-12-26T04:40:25.216Z,-1.30
2018-12-26T04:42:53.658Z,-1.30
2018-12-26T04:45:22.097Z,-1.30
2018-12-26T04:47:50.518Z,-1.40
2018-12-26T04:50:18.931Z,-1.40
2018-12-26T04:52:47.348Z,-1.30
2018-12-26T04:55:15.748Z,-1.50
2018-12-26T04:57:44.170Z,-1.50
2018-12-26T05:00:12.575Z,-1.50
2018-12-26T05:02:41.065Z,-1.60
2018-12-26T05:05:09.505Z,-1.60
2018-12-26T05:07:37.900Z,-1.70
2018-12-26T05:10:07.001Z,-1.70
2018-12-26T05:12:35.427Z,-1.60
2018-12-26T05:15:03.920Z,-1.60
2018-12-26T05:17:32.335Z,-1.70
2018-12-26T05:20:00.736Z,-1.60
2018-12-26T05:22:29.238Z,-1.50
2018-12-26T05:24:57.666Z,-1.50
2018-12-26T05:27:33.966Z,-1.40
2018-12-26T05:29:56.406Z,-1.30
2018-12-26T05:32:24.906Z,-1.30
2018-12-26T05:34:53.326Z,-1.30
2018-12-26T05:37:21.759Z,-1.30
2018-12-26T05:39:50.184Z,-1.30
2018-12-26T05:42:18.580Z,-1.50
2018-12-26T05:44:47.000Z,-1.60
2018-12-26T05:47:15.427Z,-1.70
2018-12-26T05:49:43.853Z,-1.80
2018-12-26T05:52:12.287Z,-1.80
2018-12-26T05:54:40.684Z,-1.90
2018-12-26T05:57:09.112Z,-2.00
2018-12-26T05:59:37.517Z,-2.10
2018-12-26T06:02:05.933Z,-2.30
2018-12-26T06:04:34.350Z,-2.30
2018-12-26T06:07:02.774Z,-2.30
2018-12-26T06:09:31.203Z,-2.50
2018-12-26T06:11:59.616Z,-2.60
2018-12-26T06:14:28.017Z,-2.70
2018-12-26T06:16:56.440Z,-2.60
2018-12-26T06:19:24.924Z,-2.70
2018-12-26T06:21:53.332Z,-2.70
2018-12-26T06:24:21.767Z,-2.80
2018-12-26T06:26:50.187Z,-2.70
2018-12-26T06:29:18.643Z,-2.60
2018-12-26T06:31:47.064Z,-2.60
2018-12-26T06:34:15.522Z,-2.40
2018-12-26T06:36:43.951Z,-2.30
2018-12-26T06:39:12.373Z,-2.30
2018-12-26T06:41:40.798Z,-2.10
2018-12-26T06:44:09.233Z,-2.10
2018-12-26T06:46:37.667Z,-2.10
2018-12-26T06:49:06.091Z,-2.10
2018-12-26T06:51:34.527Z,-2.10
2018-12-26T06:54:02.947Z,-2.10
2018-12-26T06:56:31.357Z,-2.00
2018-12-26T06:58:59.770Z,-2.10
2018-12-26T07:01:28.202Z,-2.20
2018-12-26T07:03:56.640Z,-2.20
2018-12-26T07:06:25.070Z,-2.30
2018-12-26T07:08:53.531Z,-2.20
2018-12-26T07:11:21.924Z,-2.20
2018-12-26T07:13:50.360Z,-2.40
2018-12-26T07:16:18.815Z,-2.40
2018-12-26T07:18:47.229Z,-2.30
2018-12-26T07:21:15.631Z,-2.20
2018-12-26T07:23:44.079Z,-2.10
2018-12-26T07:26:12.503Z,-2.10
2018-12-26T07:28:40.929Z,-2.10
2018-12-26T07:31:09.391Z,-2.10
2018-12-26T07:33:37.919Z,-2.10
2018-12-26T07:36:06.485Z,-2.00
2018-12-26T07:38:34.994Z,-1.90
2018-12-26T07:41:03.489Z,-2.00
2018-12-26T07:43:32.088Z,-2.00
2018-12-26T07:46:00.626Z,-2.20
2018-12-26T07:48:29.139Z,-2.40
2018-12-26T07:50:57.766Z,-2.60
2018-12-26T07:53:26.322Z,-2.70
2018-12-26T07:55:54.784Z,-2.60
2018-12-26T07:58:23.287Z,-2.60
2018-12-26T08:00:51.793Z,-2.60
2018-12-26T08:03:20.381Z,-2.70
2018-12-26T08:05:48.865Z,-2.70
2018-12-26T08:08:17.462Z,-2.70
2018-12-26T08:10:46.952Z,-2.80
2018-12-26T08:13:15.408Z,-2.80
2018-12-26T08:15:43.996Z,-3.00
2018-12-26T08:18:12.497Z,-3.00
2018-12-26T08:20:41.050Z,-3.00
2018-12-26T08:23:09.527Z,-3.00
2018-12-26T08:25:38.038Z,-2.90
2018-12-26T08:28:06.714Z,-2.70
2018-12-26T08:30:35.207Z,-2.60
2018-12-26T08:33:03.793Z,-2.30
2018-12-26T08:35:32.346Z,-2.20
2018-12-26T08:38:00.799Z,-2.00
2018-12-26T08:40:29.342Z,-1.90
2018-12-26T08:42:57.779Z,-2.00
2018-12-26T08:45:26.465Z,-1.90
2018-12-26T08:47:55.108Z,-2.00
2018-12-26T08:50:23.577Z,-1.80
2018-12-26T08:52:52.015Z,-1.70
2018-12-26T08:55:20.467Z,-1.50
2018-12-26T08:57:48.870Z,-1.40
2018-12-26T09:00:17.287Z,-1.40
2018-12-26T09:02:45.733Z,-1.30
2018-12-26T09:05:14.190Z,-1.30
2018-12-26T09:07:42.598Z,-1.30
2018-12-26T09:10:11.290Z,-1.20
2018-12-26T09:12:39.719Z,-1.20
2018-12-26T09:15:08.171Z,-1.10
2018-12-26T09:17:36.602Z,-1.00
2018-12-26T09:20:06.263Z,-0.90
2018-12-26T09:22:34.789Z,-0.70
2018-12-26T09:25:03.201Z,-0.60
2018-12-26T09:27:31.774Z,-0.50
2018-12-26T09:30:00.279Z,-0.50
2018-12-26T09:32:28.682Z,-0.50
2018-12-26T09:34:57.114Z,-0.50
2018-12-26T09:37:25.516Z,-0.40
2018-12-26T09:39:53.959Z,-0.40
2018-12-26T09:42:22.378Z,-0.40
2018-12-26T09:44:54.608Z,-0.40
2018-12-26T09:47:20.943Z,-0.60
2018-12-26T09:49:49.360Z,-0.80
2018-12-26T09:52:17.798Z,-0.80
2018-12-26T09:54:46.222Z,-0.80
2018-12-26T09:57:14.630Z,-0.90
2018-12-26T09:59:43.054Z,-1.00
2018-12-26T10:02:11.513Z,-1.10
2018-12-26T10:04:39.946Z,-1.10
2018-12-26T10:07:08.370Z,-1.00
2018-12-26T10:09:36.798Z,-1.00
2018-12-26T10:12:05.383Z,-0.90
2018-12-26T10:14:33.815Z,-0.80
2018-12-26T10:17:02.230Z,-0.80
2018-12-26T10:19:30.646Z,-0.60
2018-12-26T10:21:59.058Z,-0.50
2018-12-26T10:24:27.499Z,-0.50
2018-12-26T10:26:55.906Z,-0.20
2018-12-26T10:29:24.336Z,0.10
2018-12-26T10:31:52.826Z,0.30
2018-12-26T10:34:21.259Z,0.30
2018-12-26T10:36:49.681Z,0.10
2018-12-26T10:39:18.091Z,0.10
2018-12-26T10:41:46.503Z,0.10
2018-12-26T10:44:14.924Z,0.10
2018-12-26T10:46:43.320Z,0.00
2018-12-26T10:49:11.764Z,-0.20
2018-12-26T10:51:40.190Z,-0.50
2018-12-26T10:54:08.602Z,-0.60
2018-12-26T10:56:37.023Z,-0.60
2018-12-26T10:59:10.000Z,-0.80
2018-12-26T11:01:35.810Z,-0.70
2018-12-26T11:04:04.306Z,-0.80
2018-12-26T11:06:32.714Z,-0.70
2018-12-26T11:09:01.116Z,-0.70
2018-12-26T11:11:29.536Z,-0.50
2018-12-26T11:13:57.969Z,-0.40
2018-12-26T11:16:26.399Z,-0.40
2018-12-26T11:18:55.242Z,-0.50
2018-12-26T11:21:23.684Z,-0.60
2018-12-26T11:23:52.108Z,-0.40
2018-12-26T11:26:20.532Z,-0.40
2018-12-26T11:28:48.967Z,-0.50
2018-12-26T11:31:17.394Z,-0.60
2018-12-26T11:33:45.813Z,-0.50
2018-12-26T11:36:14.216Z,-0.60
2018-12-26T11:38:42.705Z,-0.40
2018-12-26T11:41:11.195Z,-0.50
2018-12-26T11:43:39.630Z,-0.30
2018-12-26T11:46:08.071Z,-0.30
2018-12-26T11:48:36.482Z,-0.30
2018-12-26T11:51:04.890Z,-0.10
2018-12-26T11:53:33.330Z,0.20
2018-12-26T11:56:01.733Z,0.30
2018-12-26T11:58:30.132Z,0.40
2018-12-26T12:00:58.562Z,0.20
2018-12-26T12:03:26.986Z,-0.10
2018-12-26T12:05:55.432Z,-0.30
2018-12-26T12:08:24.021Z,-0.40
2018-12-26T12:10:52.518Z,-0.30
2018-12-26T12:13:20.917Z,-0.40
2018-12-26T12:15:49.340Z,-0.60
2018-12-26T12:18:17.774Z,-0.50
2018-12-26T12:20:46.178Z,-0.50
2018-12-26T12:23:14.606Z,-0.60
2018-12-26T12:25:43.041Z,-0.60
2018-12-26T12:28:11.463Z,-0.40
2018-12-26T12:30:39.994Z,-0.40
2018-12-26T12:33:08.490Z,-0.30
2018-12-26T12:35:36.975Z,-0.50
2018-12-26T12:38:05.454Z,-0.50
2018-12-26T12:40:34.632Z,-0.60
2018-12-26T12:43:03.068Z,-0.60
2018-12-26T12:45:31.787Z,-0.70
2018-12-26T12:48:00.181Z,-0.50
2018-12-26T12:50:28.693Z,-0.40
2018-12-26T12:52:57.116Z,-0.40
2018-12-26T12:55:25.528Z,-0.40
2018-12-26T12:57:53.925Z,-0.50
2018-12-26T13:00:22.450Z,-0.30
2018-12-26T13:02:50.935Z,-0.20
2018-12-26T13:05:19.339Z,-0.10
2018-12-26T13:07:47.774Z,-0.20
2018-12-26T13:10:16.205Z,-0.30
2018-12-26T13:12:44.607Z,0.00
2018-12-26T13:15:13.055Z,0.00
2018-12-26T13:17:41.489Z,0.10
2018-12-26T13:20:09.903Z,0.10
2018-12-26T13:22:38.316Z,0.20
2018-12-26T13:25:07.167Z,-0.10
2018-12-26T13:27:35.592Z,0.00
2018-12-26T13:30:06.315Z,-0.20
2018-12-26T13:32:34.750Z,-0.20
2018-12-26T13:35:03.153Z,-0.10
2018-12-26T13:37:34.642Z,0.00
2018-12-26T13:40:03.062Z,-0.10
2018-12-26T13:42:31.472Z,0.10
2018-12-26T13:44:59.896Z,0.00
2018-12-26T13:47:28.313Z,0.10
2018-12-26T13:49:56.738Z,0.10
2018-12-26T13:52:25.238Z,-0.10
2018-12-26T13:54:53.658Z,-0.20
2018-12-26T13:57:22.104Z,-0.10
2018-12-26T13:59:50.504Z,-0.10
2018-12-26T14:02:18.927Z,-0.30
2018-12-26T14:04:47.361Z,-0.30
2018-12-26T14:07:16.621Z,-0.30
2018-12-26T14:09:45.034Z,-0.30
2018-12-26T14:12:13.448Z,-0.40
2018-12-26T14:14:41.871Z,-0.40
2018-12-26T14:17:10.315Z,-0.50
2018-12-26T14:19:38.818Z,-0.40
2018-12-26T14:22:07.220Z,-0.40
2018-12-26T14:24:35.659Z,-0.50
2018-12-26T14:27:04.071Z,-0.40
2018-12-26T14:29:32.480Z,-0.50
2018-12-26T14:32:00.895Z,-0.20
2018-12-26T14:34:29.327Z,-0.10
2018-12-26T14:36:57.721Z,0.10
2018-12-26T14:39:26.146Z,-0.10
2018-12-26T14:41:54.592Z,0.00
2018-12-26T14:44:22.997Z,0.00
2018-12-26T14:46:51.416Z,0.00
2018-12-26T14:49:19.839Z,0.10
2018-12-26T14:51:48.310Z,0.10
2018-12-26T14:54:16.738Z,0.00
2018-12-26T14:56:45.132Z,0.00
2018-12-26T14:59:13.554Z,0.00
2018-12-26T15:01:42.320Z,0.00
2018-12-26T15:04:10.758Z,-0.20
2018-12-26T15:06:39.159Z,-0.20
2018-12-26T15:09:07.706Z,-0.20
2018-12-26T15:11:36.152Z,-0.20
2018-12-26T15:14:04.573Z,-0.20
2018-12-26T15:16:32.996Z,-0.10
2018-12-26T15:19:15.689Z,-0.20
2018-12-26T15:21:44.089Z,-0.30
2018-12-26T15:24:12.510Z,-0.40
2018-12-26T15:26:40.929Z,-0.40
2018-12-26T15:29:09.362Z,-0.40
2018-12-26T15:31:37.758Z,-0.50
2018-12-26T15:34:06.178Z,-0.50
2018-12-26T15:36:34.625Z,-0.60
2018-12-26T15:39:03.213Z,-0.80
2018-12-26T15:41:31.608Z,-0.70
2018-12-26T15:44:00.044Z,-0.70
2018-12-26T15:46:28.484Z,-0.70
2018-12-26T15:48:56.907Z,-0.60
2018-12-26T15:51:25.320Z,-0.60
2018-12-26T15:53:53.760Z,-0.50
2018-12-26T15:56:22.190Z,-0.50
2018-12-26T15:58:50.615Z,-0.60
2018-12-26T16:01:19.027Z,-0.50
2018-12-26T16:03:47.435Z,-0.50
2018-12-26T16:06:15.924Z,-0.60
2018-12-26T16:08:44.337Z,-0.50
2018-12-26T16:11:12.795Z,-0.50
2018-12-26T16:13:41.204Z,-0.70
2018-12-26T16:16:09.631Z,-0.70
2018-12-26T16:18:38.038Z,-0.60
2018-12-26T16:21:06.447Z,-0.60
2018-12-26T16:23:34.882Z,-0.60
2018-12-26T16:26:03.305Z,-0.60
2018-12-26T16:28:31.740Z,-0.70
2018-12-26T16:31:02.175Z,-0.70
2018-12-26T16:33:30.333Z,-0.80
2018-12-26T16:35:58.786Z,-0.80
2018-12-26T16:38:27.229Z,-0.80
2018-12-26T16:40:55.660Z,-0.80
2018-12-26T16:43:24.083Z,-0.80
2018-12-26T16:45:52.584Z,-0.90
2018-12-26T16:48:21.010Z,-0.90
2018-12-26T16:50:49.448Z,-0.90
2018-12-26T16:53:17.867Z,-0.70
2018-12-26T16:55:46.287Z,-0.60
2018-12-26T16:58:14.710Z,-0.60
2018-12-26T17:00:43.132Z,-0.60
2018-12-26T17:03:11.575Z,-0.60
2018-12-26T17:05:39.981Z,-0.50
2018-12-26T17:08:08.414Z,-0.40
2018-12-26T17:10:36.851Z,-0.40
2018-12-26T17:13:05.330Z,-0.50
2018-12-26T17:15:33.753Z,-0.50
2018-12-26T17:18:02.242Z,-0.50
2018-12-26T17:20:30.678Z,-0.40
2018-12-26T17:22:59.102Z,-0.40
2018-12-26T17:25:27.524Z,-0.30
2018-12-26T17:27:55.964Z,-0.20
2018-12-26T17:30:24.374Z,-0.30
2018-12-26T17:33:00.366Z,-0.30
2018-12-26T17:35:23.041Z,-0.40
2018-12-26T17:37:51.518Z,-0.60
2018-12-26T17:40:19.972Z,-0.60
2018-12-26T17:42:48.378Z,-0.70
2018-12-26T17:45:21.943Z,-0.80
2018-12-26T17:47:50.373Z,-0.80
2018-12-26T17:50:46.725Z,-0.80
2018-12-26T17:53:18.214Z,-0.90
2018-12-26T17:55:55.496Z,-0.90
2018-12-26T17:58:26.238Z,-0.90
2018-12-26T18:00:57.732Z,-1.10
2018-12-26T18:03:26.232Z,-1.30
2018-12-26T18:05:54.670Z,-1.40
2018-12-26T18:08:23.082Z,-1.40
2018-12-26T18:10:51.497Z,-1.40
2018-12-26T18:13:19.925Z,-1.30
2018-12-26T18:15:48.379Z,-1.30
2018-12-26T18:18:16.789Z,-1.20
2018-12-26T18:20:45.207Z,-1.00
2018-12-26T18:23:13.718Z,-0.70
2018-12-26T18:25:42.138Z,-0.80
2018-12-26T18:28:10.643Z,-0.70
2018-12-26T18:30:39.109Z,-0.70
2018-12-26T18:33:07.526Z,-0.80
2018-12-26T18:35:35.946Z,-0.70
2018-12-26T18:38:04.376Z,-0.60
2018-12-26T18:40:32.823Z,-0.50
2018-12-26T18:43:01.246Z,-0.50
2018-12-26T18:45:29.675Z,-0.40
2018-12-26T18:47:58.109Z,-0.30
2018-12-26T18:50:26.526Z,-0.30
2018-12-26T18:52:54.952Z,-0.40
2018-12-26T18:55:23.405Z,-0.50
2018-12-26T18:57:51.864Z,-0.50
2018-12-26T19:00:20.311Z,-0.50
2018-12-26T19:02:48.756Z,-0.60
2018-12-26T19:05:17.180Z,-0.60
2018-12-26T19:07:45.613Z,-0.60
2018-12-26T19:10:14.031Z,-0.60
2018-12-26T19:12:42.455Z,-0.50
2018-12-26T19:15:10.880Z,-0.40
2018-12-26T19:17:39.391Z,-0.40
2018-12-26T19:20:08.742Z,-0.40
2018-12-26T19:22:37.149Z,-0.50
2018-12-26T19:25:05.836Z,-0.60
2018-12-26T19:27:34.263Z,-0.70
2018-12-26T19:30:02.771Z,-0.80
2018-12-26T19:32:31.236Z,-0.90
2018-12-26T19:34:59.692Z,-0.90
2018-12-26T19:37:28.119Z,-1.00
2018-12-26T19:39:56.515Z,-1.00
2018-12-26T19:42:25.025Z,-1.00
2018-12-26T19:44:53.458Z,-1.10
2018-12-26T19:47:21.865Z,-1.10
2018-12-26T19:49:50.299Z,-1.10
2018-12-26T19:52:18.706Z,-1.00
2018-12-26T19:54:47.147Z,-0.90
2018-12-26T19:57:15.568Z,-1.00
2018-12-26T19:59:43.981Z,-1.10
2018-12-26T20:02:12.418Z,-1.10
2018-12-26T20:04:40.827Z,-1.10
2018-12-26T20:07:09.240Z,-1.10
2018-12-26T20:09:37.662Z,-1.10
2018-12-26T20:12:06.535Z,-1.30
2018-12-26T20:14:34.936Z,-1.10
2018-12-26T20:17:03.372Z,-1.10
2018-12-26T20:19:31.787Z,-1.10
2018-12-26T20:22:00.201Z,-0.90
2018-12-26T20:24:28.621Z,-0.70
2018-12-26T20:26:57.026Z,-0.80
2018-12-26T20:29:25.457Z,-0.80
2018-12-26T20:31:56.953Z,-0.80
2018-12-26T20:34:24.018Z,-0.80
2018-12-26T20:36:52.419Z,-0.80
2018-12-26T20:39:20.866Z,-0.80
2018-12-26T20:41:49.269Z,-0.80
2018-12-26T20:44:17.755Z,-0.80
2018-12-26T20:46:46.198Z,-0.80
2018-12-26T20:49:14.624Z,-0.80
2018-12-26T20:51:43.064Z,-0.90
2018-12-26T20:54:11.497Z,-0.90
2018-12-26T20:56:39.921Z,-0.80
2018-12-26T20:59:08.352Z,-0.90
2018-12-26T21:01:36.882Z,-1.00
2018-12-26T21:04:05.317Z,-1.00
2018-12-26T21:06:33.874Z,-1.20
2018-12-26T21:09:02.392Z,-1.30
2018-12-26T21:11:30.798Z,-1.20
2018-12-26T21:13:59.262Z,-1.20
2018-12-26T21:16:27.735Z,-1.20
2018-12-26T21:18:56.162Z,-1.40
2018-12-26T21:21:24.618Z,-1.30
2018-12-26T21:23:53.055Z,-1.30
2018-12-26T21:26:21.477Z,-1.30
2018-12-26T21:28:49.914Z,-1.40
2018-12-26T21:31:18.363Z,-1.40
2018-12-26T21:33:46.839Z,-1.50
2018-12-26T21:36:15.265Z,-1.50
2018-12-26T21:38:43.779Z,-1.60
2018-12-26T21:41:12.399Z,-1.60
2018-12-26T21:43:40.852Z,-1.50
2018-12-26T21:46:09.334Z,-1.80
2018-12-26T21:48:37.765Z,-1.80
2018-12-26T21:51:06.188Z,-2.00
2018-12-26T21:53:34.630Z,-2.10
2018-12-26T21:56:03.096Z,-2.20
2018-12-26T21:58:31.545Z,-2.20
2018-12-26T22:00:59.953Z,-2.30
2018-12-26T22:03:28.385Z,-2.40
2018-12-26T22:05:56.840Z,-2.40
2018-12-26T22:08:25.361Z,-2.40
2018-12-26T22:10:53.790Z,-2.50
2018-12-26T22:13:22.225Z,-2.50
2018-12-26T22:15:50.645Z,-2.50
2018-12-26T22:18:19.108Z,-2.50
2018-12-26T22:20:47.550Z,-2.50
2018-12-26T22:23:15.967Z,-2.60
2018-12-26T22:25:44.412Z,-2.60
2018-12-26T22:28:12.836Z,-2.70
2018-12-26T22:30:42.795Z,-2.70
2018-12-26T22:33:11.219Z,-2.80
2018-12-26T22:35:39.630Z,-2.80
2018-12-26T22:38:08.058Z,-2.90
2018-12-26T22:40:36.489Z,-2.90
2018-12-26T22:43:04.921Z,-2.90
2018-12-26T22:45:33.337Z,-2.90
2018-12-26T22:48:01.919Z,-2.90
2018-12-26T22:50:30.332Z,-2.90
2018-12-26T22:52:58.757Z,-2.90
2018-12-26T22:55:27.217Z,-2.80
2018-12-26T22:57:55.645Z,-2.90
2018-12-26T23:00:25.692Z,-2.90
2018-12-26T23:02:54.146Z,-2.90
2018-12-26T23:05:22.598Z,-2.90
2018-12-26T23:07:51.076Z,-3.00
2018-12-26T23:10:19.521Z,-2.90
2018-12-26T23:12:47.923Z,-2.80
2018-12-26T23:15:16.363Z,-2.70
2018-12-26T23:17:44.777Z,-2.70
2018-12-26T23:20:13.292Z,-2.70
2018-12-26T23:22:41.711Z,-2.70
2018-12-26T23:25:10.126Z,-2.70
2018-12-26T23:27:38.570Z,-2.70
2018-12-26T23:30:07.436Z,-2.60
2018-12-26T23:32:35.861Z,-2.50
2018-12-26T23:35:04.631Z,-2.40
2018-12-26T23:37:33.120Z,-2.30
2018-12-26T23:40:01.544Z,-2.30
2018-12-26T23:42:29.998Z,-2.20
2018-12-26T23:44:58.428Z,-2.10
2018-12-26T23:47:26.830Z,-2.10
2018-12-26T23:49:55.258Z,-2.10
2018-12-26T23:52:23.682Z,-2.10
2018-12-26T23:54:52.090Z,-2.10
2018-12-26T23:57:20.502Z,-2.00
2018-12-26T23:59:48.928Z,-2.00
